createdAt,value
2022-08-10T00:01:59.032Z,3.15
2022-08-10T00:04:28.731Z,3.20
2022-08-10T00:06:58.416Z,3.37
2022-08-10T00:09:28.012Z,3.37
2022-08-10T00:11:57.623Z,3.40
2022-08-10T00:14:27.352Z,2.95
2022-08-10T00:16:56.976Z,3.00
2022-08-10T00:19:26.516Z,3.10
2022-08-10T00:21:57.860Z,2.87
2022-08-10T00:24:27.389Z,2.75
2022-08-10T00:27:58.849Z,2.70
2022-08-10T00:29:28.484Z,2.60
2022-08-10T00:31:59.514Z,2.87
2022-08-10T00:34:31.531Z,2.42
2022-08-10T00:37:02.071Z,2.52
2022-08-10T00:39:34.461Z,2.52
2022-08-10T00:42:07.532Z,2.15
2022-08-10T00:44:34.076Z,2.20
2022-08-10T00:47:03.621Z,2.22
2022-08-10T00:49:53.011Z,2.17
2022-08-10T00:52:24.989Z,2.45
2022-08-10T00:54:55.774Z,2.52
2022-08-10T00:57:26.035Z,2.17
2022-08-10T00:59:58.521Z,2.77
2022-08-10T01:02:29.012Z,2.40
2022-08-10T01:05:05.241Z,3.00
2022-08-10T01:07:53.506Z,2.25
2022-08-10T01:10:40.964Z,2.57
2022-08-10T01:13:13.467Z,2.45
2022-08-10T01:15:51.595Z,2.58
2022-08-10T01:18:26.789Z,2.72
2022-08-10T01:21:24.659Z,2.80
2022-08-10T01:24:25.061Z,2.90
2022-08-10T01:27:11.966Z,2.30
2022-08-10T01:29:56.450Z,2.30
2022-08-10T01:32:37.537Z,2.62
2022-08-10T01:35:22.118Z,2.65
2022-08-10T01:38:06.676Z,2.10
2022-08-10T01:40:39.340Z,2.52
2022-08-10T01:43:11.235Z,2.30
2022-08-10T01:45:44.802Z,2.37
2022-08-10T01:48:31.106Z,2.67
2022-08-10T01:51:15.605Z,2.00
2022-08-10T01:53:49.757Z,2.40
2022-08-10T01:56:22.242Z,2.40
2022-08-10T01:58:54.767Z,2.65
2022-08-10T02:04:05.401Z,2.67
2022-08-10T02:06:30.706Z,2.33
2022-08-10T02:09:06.205Z,2.40
2022-08-10T02:12:06.546Z,2.52
2022-08-10T02:14:06.277Z,2.50
2022-08-10T02:16:38.754Z,2.60
2022-08-10T02:19:11.999Z,2.42
2022-08-10T02:22:37.010Z,2.70
2022-08-10T02:25:43.823Z,2.08
2022-08-10T02:28:30.190Z,2.50
2022-08-10T02:30:54.209Z,2.58
2022-08-10T02:35:56.156Z,2.40
2022-08-10T02:38:58.874Z,2.65
2022-08-10T02:45:02.707Z,3.05
2022-08-10T02:45:27.037Z,2.80
2022-08-10T02:46:41.191Z,2.45
2022-08-10T02:49:13.800Z,2.30
2022-08-10T02:52:07.508Z,2.90
2022-08-10T02:54:29.148Z,2.80
2022-08-10T02:57:30.066Z,2.37
2022-08-10T03:00:03.213Z,2.50
2022-08-10T03:02:38.228Z,3.10
2022-08-10T03:05:10.863Z,3.12
2022-08-10T03:07:58.315Z,2.90
2022-08-10T03:10:33.958Z,3.37
2022-08-10T03:13:06.336Z,3.00
2022-08-10T03:15:38.186Z,3.50
2022-08-10T03:18:08.887Z,3.02
2022-08-10T03:20:41.050Z,3.02
2022-08-10T03:23:16.372Z,3.60
2022-08-10T03:25:53.396Z,3.27
2022-08-10T03:28:22.019Z,3.57
2022-08-10T03:30:52.439Z,3.00
2022-08-10T03:33:23.610Z,2.95
2022-08-10T03:36:40.301Z,3.08
2022-08-10T03:38:25.057Z,3.27
2022-08-10T03:40:58.016Z,3.35
2022-08-10T03:43:29.190Z,3.15
2022-08-10T03:46:04.546Z,3.20
2022-08-10T03:48:48.533Z,3.05
2022-08-10T03:51:09.381Z,3.00
2022-08-10T03:54:04.638Z,3.20
2022-08-10T03:56:30.455Z,3.17
2022-08-10T03:58:42.561Z,3.25
2022-08-10T04:01:13.030Z,3.40
2022-08-10T04:03:42.662Z,3.70
2022-08-10T04:06:12.744Z,3.33
2022-08-10T04:08:45.836Z,3.27
2022-08-10T04:11:15.284Z,3.20
2022-08-10T04:13:44.837Z,3.30
2022-08-10T04:16:14.348Z,3.43
2022-08-10T04:18:43.878Z,3.08
2022-08-10T04:21:22.139Z,3.25
2022-08-10T04:23:53.362Z,3.70
2022-08-10T04:26:23.284Z,3.10
2022-08-10T04:28:53.592Z,3.20
2022-08-10T04:31:25.135Z,3.20
2022-08-10T04:33:55.346Z,2.98
2022-08-10T04:36:26.039Z,3.50
2022-08-10T04:38:57.254Z,3.20
2022-08-10T04:41:27.135Z,3.12
2022-08-10T04:43:56.724Z,3.50
2022-08-10T04:46:55.986Z,3.10
2022-08-10T04:49:01.588Z,3.75
2022-08-10T04:51:29.309Z,3.90
2022-08-10T04:54:03.992Z,3.40
2022-08-10T04:56:49.181Z,3.52
2022-08-10T04:59:18.971Z,3.15
2022-08-10T05:02:30.214Z,3.90
2022-08-10T05:04:35.578Z,3.33
2022-08-10T05:06:50.634Z,4.10
2022-08-10T05:09:20.096Z,4.60
2022-08-10T05:11:49.661Z,3.58
2022-08-10T05:14:19.137Z,4.20
2022-08-10T05:16:48.654Z,4.67
2022-08-10T05:19:21.216Z,3.40
2022-08-10T05:22:03.176Z,3.17
2022-08-10T05:24:20.653Z,4.12
2022-08-10T05:27:00.228Z,3.90
2022-08-10T05:29:23.039Z,4.53
2022-08-10T05:31:53.141Z,4.53
2022-08-10T05:34:25.002Z,4.42
2022-08-10T05:36:56.042Z,3.87
2022-08-10T05:39:30.562Z,3.67
2022-08-10T05:41:57.117Z,3.92
2022-08-10T05:44:28.624Z,4.40
2022-08-10T05:46:58.139Z,4.50
2022-08-10T05:49:27.656Z,4.70
2022-08-10T05:51:57.311Z,3.87
2022-08-10T05:54:28.195Z,4.55
2022-08-10T05:56:58.486Z,4.20
2022-08-10T06:00:33.915Z,4.37
2022-08-10T06:02:41.704Z,4.05
2022-08-10T06:04:41.804Z,3.85
2022-08-10T06:07:14.474Z,3.97
2022-08-10T06:09:59.214Z,4.00
2022-08-10T06:15:05.905Z,4.58
2022-08-10T06:17:34.010Z,3.87
2022-08-10T06:20:03.810Z,4.08
2022-08-10T06:22:33.604Z,3.42
2022-08-10T06:25:37.685Z,4.17
2022-08-10T06:27:37.449Z,3.77
2022-08-10T06:30:20.798Z,3.80
2022-08-10T06:32:40.495Z,3.85
2022-08-10T06:35:11.931Z,4.15
2022-08-10T06:37:43.718Z,3.92
2022-08-10T06:40:15.317Z,3.90
2022-08-10T06:42:48.366Z,4.00
2022-08-10T06:45:26.759Z,3.67
2022-08-10T06:48:02.013Z,4.40
2022-08-10T06:50:56.405Z,3.95
2022-08-10T06:53:25.793Z,4.75
2022-08-10T06:55:59.927Z,4.45
2022-08-10T07:01:03.028Z,3.98
2022-08-10T07:03:36.013Z,4.37
2022-08-10T07:06:07.398Z,3.52
2022-08-10T07:08:39.316Z,3.27
2022-08-10T07:11:12.078Z,3.30
2022-08-10T07:14:16.815Z,3.55
2022-08-10T07:16:15.934Z,3.45
2022-08-10T07:18:48.338Z,2.90
2022-08-10T07:21:19.862Z,4.10
2022-08-10T07:23:57.922Z,3.40
2022-08-10T07:26:24.492Z,3.80
2022-08-10T07:28:55.013Z,3.37
2022-08-10T07:31:54.408Z,3.45
2022-08-10T07:33:58.852Z,3.47
2022-08-10T07:36:29.993Z,3.30
2022-08-10T07:39:01.124Z,3.75
2022-08-10T07:41:32.071Z,3.17
2022-08-10T07:44:04.640Z,3.08
2022-08-10T07:46:37.239Z,3.83
2022-08-10T07:49:16.803Z,3.45
2022-08-10T07:51:42.015Z,3.50
2022-08-10T07:54:13.970Z,3.10
2022-08-10T07:56:49.392Z,3.60
2022-08-10T07:59:27.831Z,3.23
2022-08-10T08:01:59.248Z,3.00
2022-08-10T08:04:31.324Z,3.22
2022-08-10T08:07:03.730Z,3.25
2022-08-10T08:09:34.609Z,3.77
2022-08-10T08:12:05.859Z,3.22
2022-08-10T08:17:06.198Z,3.50
2022-08-10T08:19:45.679Z,4.17
2022-08-10T08:24:10.787Z,3.20
2022-08-10T08:24:43.456Z,3.00
2022-08-10T08:27:17.368Z,3.00
2022-08-10T08:29:49.648Z,3.67
2022-08-10T08:32:31.211Z,3.55
2022-08-10T08:35:03.911Z,2.90
2022-08-10T08:38:33.237Z,2.95
2022-08-10T08:40:09.750Z,3.37
2022-08-10T08:45:38.157Z,3.08
2022-08-10T08:48:37.951Z,2.60
2022-08-10T08:52:07.005Z,2.30
2022-08-10T08:54:14.591Z,2.40
2022-08-10T08:57:46.313Z,2.55
2022-08-10T08:59:59.648Z,2.42
2022-08-10T09:02:41.235Z,2.23
2022-08-10T09:05:16.628Z,2.45
2022-08-10T09:08:08.610Z,2.10
2022-08-10T09:10:41.290Z,2.20
2022-08-10T09:13:42.679Z,2.40
2022-08-10T09:16:30.475Z,2.53
2022-08-10T09:19:19.661Z,2.90
2022-08-10T09:22:17.553Z,2.70
2022-08-10T09:24:44.063Z,2.50
2022-08-10T09:27:25.178Z,2.27
2022-08-10T09:30:03.760Z,2.22
2022-08-10T09:36:14.252Z,2.60
2022-08-10T09:36:24.241Z,2.12
2022-08-10T09:38:25.222Z,2.35
2022-08-10T09:41:12.470Z,2.37
2022-08-10T09:43:52.954Z,1.92
2022-08-10T09:46:27.474Z,2.07
2022-08-10T09:49:08.528Z,2.45
2022-08-10T09:51:48.213Z,2.10
2022-08-10T09:54:44.089Z,2.30
2022-08-10T09:57:51.714Z,2.20
2022-08-10T10:00:02.571Z,2.15
2022-08-10T10:02:52.714Z,1.98
2022-08-10T10:05:51.080Z,2.05
2022-08-10T10:08:25.603Z,2.02
2022-08-10T10:11:22.404Z,2.03
2022-08-10T10:14:13.866Z,2.10
2022-08-10T10:17:22.579Z,2.10
2022-08-10T10:20:20.715Z,2.60
2022-08-10T10:22:59.255Z,2.08
2022-08-10T10:25:50.127Z,2.27
2022-08-10T10:28:44.369Z,2.02
2022-08-10T10:31:16.706Z,2.30
2022-08-10T10:33:58.284Z,2.20
2022-08-10T10:36:30.390Z,2.50
2022-08-10T10:39:01.302Z,2.12
2022-08-10T10:41:57.442Z,2.02
2022-08-10T10:44:35.410Z,2.37
2022-08-10T10:47:17.214Z,2.10
2022-08-10T10:49:59.032Z,1.67
2022-08-10T10:52:55.925Z,1.97
2022-08-10T10:56:15.474Z,2.00
2022-08-10T10:58:32.804Z,1.85
2022-08-10T11:01:18.837Z,2.00
2022-08-10T11:04:18.742Z,2.52
2022-08-10T11:06:51.367Z,2.02
2022-08-10T11:10:08.942Z,1.77
2022-08-10T11:12:00.669Z,2.00
2022-08-10T11:14:42.245Z,1.90
2022-08-10T11:17:23.701Z,2.30
2022-08-10T11:20:11.242Z,1.90
2022-08-10T11:22:46.474Z,2.20
2022-08-10T11:25:24.970Z,1.90
2022-08-10T11:28:03.343Z,2.17
2022-08-10T11:31:00.135Z,1.72
2022-08-10T11:34:11.245Z,1.85
2022-08-10T11:36:48.244Z,1.90
2022-08-10T11:39:20.871Z,1.77
2022-08-10T11:42:07.823Z,2.10
2022-08-10T11:44:42.512Z,2.08
2022-08-10T11:47:17.942Z,1.90
2022-08-10T11:50:04.843Z,1.77
2022-08-10T11:52:46.365Z,1.57
2022-08-10T11:55:27.293Z,1.87
2022-08-10T11:57:59.944Z,1.70
2022-08-10T12:00:33.337Z,1.75
2022-08-10T12:03:08.217Z,2.00
2022-08-10T12:05:51.679Z,1.60
2022-08-10T12:10:07.220Z,2.00
2022-08-10T12:10:44.907Z,1.72
2022-08-10T12:13:23.206Z,1.70
2022-08-10T12:16:07.653Z,2.05
2022-08-10T12:19:02.076Z,1.67
2022-08-10T12:21:43.341Z,1.92
2022-08-10T12:24:24.993Z,2.10
2022-08-10T12:27:18.569Z,2.10
2022-08-10T12:29:56.956Z,1.80
2022-08-10T12:32:29.467Z,1.92
2022-08-10T12:35:26.239Z,1.90
2022-08-10T12:38:12.280Z,2.40
2022-08-10T12:40:44.820Z,2.95
2022-08-10T12:44:06.687Z,2.93
2022-08-10T12:46:12.814Z,2.58
2022-08-10T12:49:04.811Z,2.45
2022-08-10T12:51:35.634Z,2.42
2022-08-10T12:54:14.185Z,2.02
2022-08-10T12:56:52.428Z,3.10
2022-08-10T12:59:24.381Z,2.98
2022-08-10T13:02:07.836Z,3.22
2022-08-10T13:04:39.838Z,2.98
2022-08-10T13:08:25.656Z,3.17
2022-08-10T13:09:56.318Z,2.80
2022-08-10T13:12:36.492Z,3.43
2022-08-10T13:14:51.053Z,2.80
2022-08-10T13:17:38.612Z,3.77
2022-08-10T13:20:03.427Z,3.37
2022-08-10T13:22:32.804Z,3.87
2022-08-10T13:25:04.687Z,3.75
2022-08-10T13:28:00.424Z,3.77
2022-08-10T13:30:15.199Z,3.52
2022-08-10T13:32:50.270Z,3.70
2022-08-10T13:35:22.819Z,4.65
2022-08-10T13:37:55.760Z,4.20
2022-08-10T13:40:27.300Z,4.08
2022-08-10T13:42:59.665Z,4.58
2022-08-10T13:45:29.835Z,4.30
2022-08-10T13:48:15.652Z,4.83
2022-08-10T13:50:47.371Z,4.60
2022-08-10T13:53:19.718Z,4.20
2022-08-10T13:55:56.706Z,3.90
2022-08-10T13:58:34.764Z,3.65
2022-08-10T14:01:14.463Z,4.08
2022-08-10T14:03:46.354Z,3.77
2022-08-10T14:08:51.624Z,4.90
2022-08-10T14:11:22.928Z,5.50
2022-08-10T14:13:58.291Z,4.93
2022-08-10T14:16:29.216Z,4.62
2022-08-10T14:19:04.277Z,4.80
2022-08-10T14:21:36.930Z,4.72
2022-08-10T14:24:06.907Z,5.07
2022-08-10T14:26:38.409Z,6.05
2022-08-10T14:29:19.712Z,4.37
2022-08-10T14:32:01.610Z,5.35
2022-08-10T14:34:18.008Z,4.97
2022-08-10T14:36:53.035Z,5.12
2022-08-10T14:39:28.164Z,5.47
2022-08-10T14:42:08.068Z,5.17
2022-08-10T14:44:34.256Z,5.42
2022-08-10T14:48:01.963Z,5.20
2022-08-10T14:49:57.219Z,5.10
2022-08-10T14:52:12.268Z,4.97
2022-08-10T14:54:43.945Z,5.10
2022-08-10T14:57:17.023Z,5.25
2022-08-10T15:00:22.474Z,4.95
2022-08-10T15:02:40.873Z,5.30
2022-08-10T15:04:55.139Z,4.60
2022-08-10T15:07:32.864Z,4.97
2022-08-10T15:10:04.687Z,5.03
2022-08-10T15:12:38.422Z,5.12
2022-08-10T15:15:16.539Z,4.67
2022-08-10T15:17:48.677Z,5.95
2022-08-10T15:20:21.575Z,6.62
2022-08-10T15:22:54.321Z,6.08
2022-08-10T15:25:26.756Z,5.95
2022-08-10T15:28:06.582Z,6.62
2022-08-10T15:30:47.844Z,6.55
2022-08-10T15:34:03.685Z,5.77
2022-08-10T15:36:38.132Z,6.37
2022-08-10T15:39:16.623Z,6.42
2022-08-10T15:41:57.583Z,6.55
2022-08-10T15:44:16.306Z,6.55
2022-08-10T15:46:48.759Z,6.97
2022-08-10T15:49:26.898Z,7.27
2022-08-10T15:52:02.474Z,6.95
2022-08-10T15:54:35.131Z,7.70
2022-08-10T15:57:10.665Z,7.15
2022-08-10T15:59:42.748Z,7.00
2022-08-10T16:02:18.450Z,6.75
2022-08-10T16:05:09.467Z,7.00
2022-08-10T16:07:45.759Z,6.62
2022-08-10T16:10:28.267Z,6.30
2022-08-10T16:12:59.817Z,6.67
2022-08-10T16:15:29.651Z,6.28
2022-08-10T16:18:14.148Z,6.28
2022-08-10T16:20:56.436Z,5.67
2022-08-10T16:23:29.218Z,6.20
2022-08-10T16:26:13.590Z,6.03
2022-08-10T16:28:36.963Z,5.72
2022-08-10T16:31:09.544Z,6.08
2022-08-10T16:33:54.085Z,6.15
2022-08-10T16:36:15.083Z,6.33
2022-08-10T16:38:47.774Z,5.80
2022-08-10T16:42:00.702Z,5.92
2022-08-10T16:43:51.825Z,6.13
2022-08-10T16:46:22.374Z,5.50
2022-08-10T16:48:53.864Z,5.28
2022-08-10T16:53:54.747Z,4.37
2022-08-10T16:56:34.055Z,5.20
2022-08-10T16:59:07.247Z,5.10
2022-08-10T17:01:40.902Z,5.47
2022-08-10T17:04:12.720Z,5.13
2022-08-10T17:06:55.376Z,5.62
2022-08-10T17:09:25.119Z,5.28
2022-08-10T17:11:58.490Z,5.47
2022-08-10T17:14:30.052Z,4.83
2022-08-10T17:19:42.125Z,4.80
2022-08-10T17:22:17.699Z,4.97
2022-08-10T17:24:53.288Z,5.62
2022-08-10T17:28:05.378Z,5.53
2022-08-10T17:30:04.230Z,5.75
2022-08-10T17:32:44.830Z,5.47
2022-08-10T17:35:18.585Z,5.50
2022-08-10T17:37:58.432Z,6.20
2022-08-10T17:40:30.738Z,5.93
2022-08-10T17:45:47.723Z,6.60
2022-08-10T17:48:09.887Z,7.40
2022-08-10T17:50:41.954Z,6.22
2022-08-10T17:53:20.582Z,6.28
2022-08-10T17:55:53.229Z,6.90
2022-08-10T17:58:26.233Z,5.67
2022-08-10T18:01:38.624Z,5.15
2022-08-10T18:03:36.175Z,4.90
2022-08-10T18:06:14.382Z,4.83
2022-08-10T18:08:53.376Z,4.53
2022-08-10T18:11:26.371Z,4.67
2022-08-10T18:13:58.871Z,4.22
2022-08-10T18:16:31.807Z,4.12
2022-08-10T18:19:08.663Z,4.40
2022-08-10T18:21:44.080Z,4.17
2022-08-10T18:24:20.916Z,4.28
2022-08-10T18:26:54.126Z,3.92
2022-08-10T18:29:28.176Z,3.87
2022-08-10T18:32:00.751Z,3.87
2022-08-10T18:34:33.563Z,3.90
2022-08-10T18:37:06.047Z,3.37
2022-08-10T18:42:11.966Z,4.40
2022-08-10T18:44:47.165Z,3.77
2022-08-10T18:47:22.343Z,3.58
2022-08-10T18:49:55.033Z,3.83
2022-08-10T18:52:27.019Z,3.58
2022-08-10T18:54:59.514Z,3.17
2022-08-10T18:57:48.322Z,3.05
2022-08-10T19:00:21.047Z,3.30
2022-08-10T19:03:02.244Z,2.90
2022-08-10T19:05:51.459Z,3.20
2022-08-10T19:08:48.978Z,3.40
2022-08-10T19:11:32.602Z,3.65
2022-08-10T19:14:10.938Z,3.40
2022-08-10T19:16:59.962Z,3.45
2022-08-10T19:19:50.340Z,3.62
2022-08-10T19:22:28.630Z,3.72
2022-08-10T19:25:08.098Z,3.90
2022-08-10T19:28:06.494Z,3.80
2022-08-10T19:30:39.028Z,3.80
2022-08-10T19:36:05.670Z,4.17
2022-08-10T19:38:50.432Z,3.55
2022-08-10T19:41:44.225Z,3.60
2022-08-10T19:44:28.823Z,3.47
2022-08-10T19:47:04.397Z,3.77
2022-08-10T19:50:07.199Z,3.15
2022-08-10T19:52:45.226Z,3.00
2022-08-10T19:55:43.442Z,3.00
2022-08-10T19:58:26.577Z,3.20
2022-08-10T20:01:05.807Z,3.13
2022-08-10T20:03:56.405Z,3.70
2022-08-10T20:06:47.121Z,3.40
2022-08-10T20:09:22.775Z,3.40
2022-08-10T20:12:07.563Z,3.20
2022-08-10T20:15:03.121Z,3.10
2022-08-10T20:17:51.676Z,3.50
2022-08-10T20:20:18.747Z,3.08
2022-08-10T20:22:51.421Z,3.10
2022-08-10T20:25:32.591Z,2.90
2022-08-10T20:28:08.907Z,3.00
2022-08-10T20:30:42.180Z,3.20
2022-08-10T20:33:14.822Z,3.22
2022-08-10T20:35:56.456Z,3.02
2022-08-10T20:38:43.923Z,3.70
2022-08-10T20:41:25.669Z,3.00
2022-08-10T20:44:07.107Z,3.92
2022-08-10T20:46:48.089Z,2.70
2022-08-10T20:49:30.127Z,2.83
2022-08-10T20:52:03.055Z,2.93
2022-08-10T20:54:41.530Z,2.65
2022-08-10T20:57:56.809Z,3.12
2022-08-10T21:00:14.238Z,3.40
2022-08-10T21:02:59.466Z,3.50
2022-08-10T21:06:08.433Z,3.37
2022-08-10T21:08:56.404Z,3.10
2022-08-10T21:11:34.749Z,3.00
2022-08-10T21:14:25.264Z,2.87
2022-08-10T21:17:18.837Z,3.15
2022-08-10T21:20:07.800Z,3.10
2022-08-10T21:22:43.291Z,3.05
2022-08-10T21:25:20.328Z,3.25
2022-08-10T21:28:17.786Z,3.05
2022-08-10T21:31:06.138Z,2.47
2022-08-10T21:33:48.992Z,3.42
2022-08-10T21:36:36.382Z,3.70
2022-08-10T21:39:11.352Z,2.90
2022-08-10T21:42:24.869Z,3.20
2022-08-10T21:45:18.354Z,3.40
2022-08-10T21:48:29.935Z,2.85
2022-08-10T21:51:24.474Z,3.10
2022-08-10T21:54:14.079Z,3.40
2022-08-10T21:57:04.279Z,3.25
2022-08-10T22:00:00.597Z,4.10
2022-08-10T22:02:52.199Z,3.85
2022-08-10T22:05:51.671Z,3.23
2022-08-10T22:08:44.430Z,3.93
2022-08-10T22:11:38.475Z,3.80
2022-08-10T22:14:33.654Z,3.62
2022-08-10T22:18:00.292Z,3.55
2022-08-10T22:20:16.130Z,3.08
2022-08-10T22:23:19.152Z,3.08
2022-08-10T22:26:27.249Z,3.72
2022-08-10T22:29:18.050Z,2.65
2022-08-10T22:32:23.652Z,2.87
2022-08-10T22:35:20.061Z,2.58
2022-08-10T22:38:40.583Z,2.90
2022-08-10T22:41:42.489Z,3.10
2022-08-10T22:44:31.787Z,3.17
2022-08-10T22:47:21.353Z,3.15
2022-08-10T22:49:54.251Z,3.00
2022-08-10T22:52:28.531Z,3.02
2022-08-10T22:55:23.452Z,3.02
2022-08-10T22:58:11.505Z,2.90
2022-08-10T23:00:41.150Z,3.40
2022-08-10T23:03:14.052Z,3.50
2022-08-10T23:06:10.976Z,2.90
2022-08-10T23:08:58.708Z,3.20
2022-08-10T23:11:30.975Z,3.60
2022-08-10T23:14:08.575Z,2.95
2022-08-10T23:17:01.858Z,3.60
2022-08-10T23:19:33.306Z,3.77
2022-08-10T23:22:11.083Z,3.03
2022-08-10T23:24:49.782Z,3.22
2022-08-10T23:27:38.372Z,3.62
2022-08-10T23:30:09.382Z,3.55
2022-08-10T23:32:36.328Z,3.40
2022-08-10T23:36:31.213Z,3.42
2022-08-10T23:37:44.940Z,3.60
2022-08-10T23:40:19.578Z,3.60
2022-08-10T23:42:52.015Z,3.02
2022-08-10T23:45:27.462Z,3.60
2022-08-10T23:48:02.219Z,3.50
2022-08-10T23:50:34.046Z,2.90
2022-08-10T23:53:13.546Z,3.20
2022-08-10T23:55:49.092Z,3.47
2022-08-10T23:58:31.579Z,2.58
